createdAt,value
2019-03-11T00:01:55.116Z,3.30
2019-03-11T00:04:26.511Z,3.87
2019-03-11T00:06:57.969Z,4.63
2019-03-11T00:09:28.804Z,3.13
2019-03-11T00:11:59.539Z,3.90
2019-03-11T00:14:30.309Z,3.63
2019-03-11T00:17:01.190Z,3.20
2019-03-11T00:19:32.169Z,3.93
2019-03-11T00:22:03.290Z,3.67
2019-03-11T00:24:34.138Z,4.07
2019-03-11T00:27:04.893Z,3.70
2019-03-11T00:29:35.594Z,3.63
2019-03-11T00:32:06.479Z,3.87
2019-03-11T00:34:37.564Z,3.90
2019-03-11T00:37:08.360Z,3.77
2019-03-11T00:39:39.204Z,4.10
2019-03-11T00:42:09.848Z,4.60
2019-03-11T00:44:40.673Z,4.23
2019-03-11T00:47:11.538Z,4.03
2019-03-11T00:49:42.269Z,4.20
2019-03-11T00:52:13.078Z,4.03
2019-03-11T00:54:44.173Z,4.90
2019-03-11T00:57:15.414Z,4.93
2019-03-11T00:59:46.221Z,4.50
2019-03-11T01:02:17.064Z,3.53
2019-03-11T01:04:48.194Z,4.67
2019-03-11T01:07:19.123Z,4.80
2019-03-11T01:09:49.919Z,4.83
2019-03-11T01:12:20.739Z,4.33
2019-03-11T01:14:51.395Z,4.87
2019-03-11T01:17:22.754Z,4.87
2019-03-11T01:19:53.489Z,5.13
2019-03-11T01:22:24.259Z,3.97
2019-03-11T01:24:55.303Z,4.60
2019-03-11T01:27:26.044Z,4.63
2019-03-11T01:29:57.390Z,4.20
2019-03-11T01:32:28.508Z,5.00
2019-03-11T01:34:59.414Z,4.50
2019-03-11T01:37:30.388Z,3.93
2019-03-11T01:40:01.300Z,4.90
2019-03-11T01:42:32.383Z,4.70
2019-03-11T01:45:03.086Z,5.20
2019-03-11T01:47:33.929Z,5.73
2019-03-11T01:50:05.184Z,5.93
2019-03-11T01:52:35.866Z,5.73
2019-03-11T01:55:07.301Z,5.83
2019-03-11T01:57:38.019Z,4.53
2019-03-11T02:00:11.419Z,4.93
2019-03-11T02:02:42.289Z,4.90
2019-03-11T02:05:13.125Z,4.90
2019-03-11T02:07:44.200Z,4.63
2019-03-11T02:10:22.299Z,5.17
2019-03-11T02:12:52.855Z,4.90
2019-03-11T02:15:24.004Z,4.70
2019-03-11T02:17:54.734Z,4.40
2019-03-11T02:20:25.559Z,4.47
2019-03-11T02:22:56.431Z,4.70
2019-03-11T02:25:27.229Z,4.93
2019-03-11T02:27:58.143Z,4.47
2019-03-11T02:30:28.890Z,4.20
2019-03-11T02:32:59.857Z,4.60
2019-03-11T02:35:31.549Z,4.83
2019-03-11T02:38:02.391Z,4.90
2019-03-11T02:40:33.230Z,3.63
2019-03-11T02:43:04.052Z,4.20
2019-03-11T02:45:35.020Z,4.20
2019-03-11T02:48:05.884Z,4.50
2019-03-11T02:50:36.711Z,3.87
2019-03-11T02:53:07.915Z,4.50
2019-03-11T02:55:38.753Z,4.33
2019-03-11T02:58:09.581Z,4.23
2019-03-11T03:00:40.381Z,5.23
2019-03-11T03:03:28.910Z,4.17
2019-03-11T03:06:04.228Z,4.13
2019-03-11T03:08:35.015Z,4.87
2019-03-11T03:11:06.164Z,3.87
2019-03-11T03:13:37.239Z,5.07
2019-03-11T03:16:08.491Z,4.53
2019-03-11T03:18:39.491Z,4.37
2019-03-11T03:21:10.355Z,4.00
2019-03-11T03:23:41.531Z,3.93
2019-03-11T03:26:12.381Z,3.90
2019-03-11T03:28:43.640Z,4.50
2019-03-11T03:31:14.487Z,3.77
2019-03-11T03:33:45.210Z,3.73
2019-03-11T03:36:16.589Z,4.70
2019-03-11T03:38:47.400Z,4.43
2019-03-11T03:41:18.263Z,4.40
2019-03-11T03:43:49.035Z,4.90
2019-03-11T03:46:19.857Z,4.57
2019-03-11T03:48:50.744Z,5.23
2019-03-11T03:51:21.484Z,5.47
2019-03-11T03:53:52.479Z,4.60
2019-03-11T03:56:49.594Z,5.63
2019-03-11T03:59:20.414Z,5.60
2019-03-11T04:01:51.631Z,5.63
2019-03-11T04:04:22.314Z,4.93
2019-03-11T04:06:53.428Z,6.10
2019-03-11T04:09:24.180Z,6.00
2019-03-11T04:11:55.231Z,6.20
2019-03-11T04:14:26.145Z,6.83
2019-03-11T04:16:56.930Z,7.00
2019-03-11T04:19:29.676Z,5.47
2019-03-11T04:22:00.315Z,6.60
2019-03-11T04:24:31.405Z,6.70
2019-03-11T04:27:06.510Z,6.43
2019-03-11T04:29:37.339Z,6.83
2019-03-11T04:32:08.510Z,6.83
2019-03-11T04:34:39.515Z,7.87
2019-03-11T04:37:10.454Z,7.07
2019-03-11T04:39:41.488Z,7.83
2019-03-11T04:42:12.254Z,8.40
2019-03-11T04:44:43.010Z,8.00
2019-03-11T04:47:13.839Z,7.80
2019-03-11T04:49:44.819Z,7.70
2019-03-11T04:52:15.794Z,8.47
2019-03-11T04:54:46.479Z,7.67
2019-03-11T04:57:17.669Z,8.23
2019-03-11T04:59:48.559Z,7.60
2019-03-11T05:02:19.509Z,7.07
2019-03-11T05:04:50.808Z,7.00
2019-03-11T05:07:21.640Z,7.47
2019-03-11T05:09:52.534Z,8.17
2019-03-11T05:12:23.549Z,7.57
2019-03-11T05:14:54.729Z,7.23
2019-03-11T05:17:25.710Z,7.27
2019-03-11T05:19:56.532Z,8.73
2019-03-11T05:22:27.665Z,8.10
2019-03-11T05:24:58.629Z,7.67
2019-03-11T05:27:29.939Z,7.47
2019-03-11T05:30:01.009Z,7.47
2019-03-11T05:32:32.554Z,8.63
2019-03-11T05:35:03.954Z,7.80
2019-03-11T05:37:35.399Z,7.47
2019-03-11T05:40:06.869Z,7.97
2019-03-11T05:42:37.665Z,7.57
2019-03-11T05:45:09.643Z,7.50
2019-03-11T05:47:41.919Z,6.87
2019-03-11T05:50:14.040Z,6.07
2019-03-11T05:52:45.341Z,5.90
2019-03-11T05:55:16.644Z,6.07
2019-03-11T05:57:47.474Z,6.00
2019-03-11T06:00:22.374Z,6.00
2019-03-11T06:02:53.072Z,5.83
2019-03-11T06:05:24.484Z,6.87
2019-03-11T06:07:55.614Z,6.63
2019-03-11T06:10:26.356Z,6.90
2019-03-11T06:12:57.100Z,7.77
2019-03-11T06:15:27.946Z,8.77
2019-03-11T06:17:58.765Z,7.50
2019-03-11T06:20:53.949Z,8.27
2019-03-11T06:23:25.104Z,7.70
2019-03-11T06:25:56.060Z,8.60
2019-03-11T06:28:27.102Z,7.60
2019-03-11T06:30:58.249Z,8.43
2019-03-11T06:33:29.359Z,7.90
2019-03-11T06:36:00.494Z,8.97
2019-03-11T06:38:31.199Z,8.97
2019-03-11T06:41:01.995Z,8.77
2019-03-11T06:43:33.014Z,8.90
2019-03-11T06:46:03.794Z,9.20
2019-03-11T06:48:34.804Z,9.13
2019-03-11T06:51:06.043Z,8.77
2019-03-11T06:53:36.814Z,8.03
2019-03-11T06:56:07.851Z,8.60
2019-03-11T06:58:39.089Z,6.60
2019-03-11T07:01:09.884Z,6.60
2019-03-11T07:03:40.865Z,6.17
2019-03-11T07:06:11.935Z,4.83
2019-03-11T07:08:42.666Z,3.80
2019-03-11T07:11:13.764Z,4.40
2019-03-11T07:13:45.115Z,3.87
2019-03-11T07:16:16.256Z,3.37
2019-03-11T07:18:47.084Z,3.30
2019-03-11T07:21:18.508Z,4.10
2019-03-11T07:23:49.469Z,3.70
2019-03-11T07:26:21.077Z,3.47
2019-03-11T07:28:52.189Z,3.07
2019-03-11T07:31:23.030Z,4.07
2019-03-11T07:33:54.074Z,4.17
2019-03-11T07:36:25.199Z,3.90
2019-03-11T07:38:56.380Z,3.13
2019-03-11T07:41:27.187Z,2.93
2019-03-11T07:43:58.334Z,2.47
2019-03-11T07:46:29.524Z,2.73
2019-03-11T07:49:00.294Z,3.80
2019-03-11T07:51:31.074Z,3.23
2019-03-11T07:54:02.129Z,4.03
2019-03-11T07:56:33.194Z,4.10
2019-03-11T07:59:04.268Z,3.10
2019-03-11T08:01:34.990Z,3.60
2019-03-11T08:04:06.469Z,2.60
2019-03-11T08:06:37.355Z,2.30
2019-03-11T08:09:09.284Z,1.53
2019-03-11T08:11:40.424Z,1.80
2019-03-11T08:14:11.270Z,1.37
2019-03-11T08:16:42.379Z,1.43
2019-03-11T08:19:13.704Z,1.30
2019-03-11T08:21:44.514Z,1.40
2019-03-11T08:24:16.763Z,1.47
2019-03-11T08:26:48.464Z,1.37
2019-03-11T08:29:19.559Z,1.10
2019-03-11T08:31:50.555Z,1.10
2019-03-11T08:34:22.008Z,0.93
2019-03-11T08:36:53.805Z,1.00
2019-03-11T08:39:24.647Z,0.93
2019-03-11T08:41:55.784Z,0.60
2019-03-11T08:44:27.199Z,0.90
2019-03-11T08:46:58.428Z,0.80
2019-03-11T08:49:29.219Z,0.80
2019-03-11T08:51:59.944Z,0.80
2019-03-11T08:54:30.749Z,0.60
2019-03-11T08:57:01.989Z,0.80
2019-03-11T08:59:32.834Z,0.53
2019-03-11T09:02:04.234Z,0.40
2019-03-11T09:04:35.194Z,0.50
2019-03-11T09:07:05.960Z,0.70
2019-03-11T09:09:36.925Z,0.37
2019-03-11T09:12:07.715Z,0.70
2019-03-11T09:14:38.525Z,0.20
2019-03-11T09:17:09.754Z,0.30
2019-03-11T09:19:40.724Z,0.30
2019-03-11T09:22:12.109Z,0.57
2019-03-11T09:24:43.508Z,0.33
2019-03-11T09:27:14.389Z,0.37
2019-03-11T09:29:45.248Z,0.40
2019-03-11T09:32:15.959Z,0.40
2019-03-11T09:34:46.945Z,0.40
2019-03-11T09:37:18.039Z,0.30
2019-03-11T09:39:49.069Z,0.40
2019-03-11T09:42:20.188Z,0.20
2019-03-11T09:44:51.068Z,0.10
2019-03-11T09:47:22.483Z,0.47
2019-03-11T09:49:53.834Z,0.30
2019-03-11T09:52:24.984Z,0.40
2019-03-11T09:54:56.519Z,0.30
2019-03-11T09:57:27.689Z,0.20
2019-03-11T09:59:58.904Z,0.30
2019-03-11T10:02:29.938Z,0.40
2019-03-11T10:05:00.593Z,0.30
2019-03-11T10:07:31.839Z,0.30
2019-03-11T10:10:03.029Z,0.50
2019-03-11T10:12:34.405Z,0.40
2019-03-11T10:15:05.803Z,0.40
2019-03-11T10:17:36.822Z,0.50
2019-03-11T10:20:08.089Z,0.37
2019-03-11T10:22:38.946Z,0.30
2019-03-11T10:25:10.209Z,0.27
2019-03-11T10:27:41.674Z,0.17
2019-03-11T10:30:14.160Z,0.40
2019-03-11T10:32:44.960Z,0.20
2019-03-11T10:35:30.864Z,0.30
2019-03-11T10:37:49.409Z,0.30
2019-03-11T10:40:21.585Z,0.20
2019-03-11T10:42:52.864Z,0.40
2019-03-11T10:45:30.986Z,0.37
2019-03-11T10:47:56.809Z,0.20
2019-03-11T10:50:27.719Z,0.30
2019-03-11T10:52:58.714Z,0.20
2019-03-11T10:55:29.747Z,0.30
2019-03-11T10:58:01.266Z,0.30
2019-03-11T11:00:32.399Z,0.20
2019-03-11T11:03:03.194Z,0.40
2019-03-11T11:05:34.389Z,0.30
2019-03-11T11:08:05.426Z,0.53
2019-03-11T11:10:36.730Z,0.17
2019-03-11T11:13:08.129Z,0.23
2019-03-11T11:15:39.380Z,0.37
2019-03-11T11:18:10.359Z,0.30
2019-03-11T11:20:41.239Z,0.30
2019-03-11T11:23:12.004Z,0.23
2019-03-11T11:25:42.844Z,0.27
2019-03-11T11:28:14.329Z,0.27
2019-03-11T11:30:45.439Z,0.33
2019-03-11T11:33:16.639Z,0.10
2019-03-11T11:35:48.044Z,0.30
2019-03-11T11:38:19.061Z,0.10
2019-03-11T11:40:49.984Z,0.30
2019-03-11T11:43:20.879Z,0.10
2019-03-11T11:45:51.863Z,0.20
2019-03-11T11:48:23.824Z,0.30
2019-03-11T11:50:55.212Z,0.20
2019-03-11T11:53:26.369Z,0.40
2019-03-11T11:55:58.208Z,0.30
2019-03-11T11:58:30.000Z,0.30
2019-03-11T12:01:00.828Z,0.57
2019-03-11T12:03:32.214Z,3.07
2019-03-11T12:06:03.404Z,0.37
2019-03-11T12:08:34.285Z,0.27
2019-03-11T12:11:05.254Z,0.73
2019-03-11T12:13:36.199Z,0.20
2019-03-11T12:16:07.807Z,0.40
2019-03-11T12:18:38.576Z,0.20
2019-03-11T12:21:09.449Z,1.90
2019-03-11T12:23:46.229Z,1.23
2019-03-11T12:26:13.082Z,0.87
2019-03-11T12:28:44.474Z,2.20
2019-03-11T12:31:15.364Z,0.20
2019-03-11T12:33:46.461Z,0.20
2019-03-11T12:36:17.439Z,0.30
2019-03-11T12:38:48.158Z,0.60
2019-03-11T12:41:19.280Z,0.47
2019-03-11T12:43:50.599Z,0.20
2019-03-11T12:46:21.844Z,0.60
2019-03-11T12:48:53.349Z,0.30
2019-03-11T12:51:24.093Z,0.33
2019-03-11T12:53:54.829Z,0.30
2019-03-11T12:56:25.614Z,0.53
2019-03-11T12:58:56.389Z,0.13
2019-03-11T13:01:27.694Z,0.20
2019-03-11T13:03:58.538Z,0.30
2019-03-11T13:06:29.559Z,0.03
2019-03-11T13:09:00.259Z,0.20
2019-03-11T13:11:31.054Z,0.10
2019-03-11T13:14:02.110Z,0.00
2019-03-11T13:16:32.949Z,0.10
2019-03-11T13:19:13.244Z,0.13
2019-03-11T13:21:39.593Z,0.20
2019-03-11T13:24:10.514Z,0.17
2019-03-11T13:26:41.904Z,0.40
2019-03-11T13:29:12.925Z,0.30
2019-03-11T13:31:44.235Z,0.10
2019-03-11T13:34:15.489Z,0.10
2019-03-11T13:36:46.859Z,0.10
2019-03-11T13:39:17.740Z,0.20
2019-03-11T13:41:48.824Z,0.10
2019-03-11T13:44:19.733Z,0.07
2019-03-11T13:46:50.530Z,0.03
2019-03-11T13:49:21.963Z,0.17
2019-03-11T13:51:53.120Z,0.30
2019-03-11T13:54:24.119Z,0.20
2019-03-11T13:56:55.529Z,0.40
2019-03-11T13:59:26.419Z,0.10
2019-03-11T14:01:57.139Z,0.10
2019-03-11T14:04:28.059Z,0.00
2019-03-11T14:06:59.884Z,0.00
2019-03-11T14:09:31.407Z,0.20
2019-03-11T14:12:02.219Z,0.00
2019-03-11T14:14:33.399Z,0.00
2019-03-11T14:17:04.774Z,0.10
2019-03-11T14:19:36.130Z,0.20
2019-03-11T14:22:07.715Z,0.40
2019-03-11T14:24:38.519Z,0.00
2019-03-11T14:27:09.739Z,0.43
2019-03-11T14:29:41.050Z,0.30
2019-03-11T14:32:12.870Z,0.40
2019-03-11T14:34:45.244Z,0.33
2019-03-11T14:37:16.299Z,0.10
2019-03-11T14:39:47.423Z,0.60
2019-03-11T14:42:18.200Z,1.03
2019-03-11T14:44:48.888Z,0.63
2019-03-11T14:47:20.724Z,0.33
2019-03-11T14:49:51.693Z,0.30
2019-03-11T14:52:23.003Z,0.30
2019-03-11T14:54:54.069Z,0.13
2019-03-11T14:57:25.299Z,0.10
2019-03-11T14:59:56.378Z,0.23
2019-03-11T15:02:27.519Z,0.30
2019-03-11T15:04:58.759Z,0.30
2019-03-11T15:07:29.518Z,0.20
2019-03-11T15:10:00.349Z,0.30
2019-03-11T15:12:31.409Z,0.30
2019-03-11T15:15:02.144Z,0.10
2019-03-11T15:17:33.174Z,0.30
2019-03-11T15:20:04.064Z,0.00
2019-03-11T15:22:35.843Z,0.00
2019-03-11T15:25:07.329Z,0.20
2019-03-11T15:27:38.349Z,0.30
2019-03-11T15:30:10.943Z,0.20
2019-03-11T15:32:42.173Z,0.20
2019-03-11T15:35:13.319Z,0.10
2019-03-11T15:37:44.179Z,0.37
2019-03-11T15:40:16.372Z,0.10
2019-03-11T15:42:47.839Z,0.83
2019-03-11T15:45:18.869Z,0.40
2019-03-11T15:47:49.809Z,1.27
2019-03-11T15:50:23.403Z,0.47
2019-03-11T15:52:54.416Z,0.83
2019-03-11T15:55:25.684Z,1.37
2019-03-11T15:57:56.473Z,1.07
2019-03-11T16:00:27.299Z,0.30
2019-03-11T16:02:58.505Z,0.10
2019-03-11T16:05:29.859Z,0.33
2019-03-11T16:08:00.604Z,0.83
2019-03-11T16:10:31.703Z,0.17
2019-03-11T16:13:03.014Z,0.10
2019-03-11T16:15:34.164Z,0.20
2019-03-11T16:18:05.204Z,0.10
2019-03-11T16:20:36.329Z,0.60
2019-03-11T16:23:07.105Z,0.23
2019-03-11T16:25:37.859Z,0.10
2019-03-11T16:28:08.763Z,0.10
2019-03-11T16:30:40.183Z,0.00
2019-03-11T16:33:11.248Z,0.57
2019-03-11T16:35:42.029Z,0.00
2019-03-11T16:38:12.879Z,0.00
2019-03-11T16:40:43.529Z,0.20
2019-03-11T16:43:14.544Z,0.00
2019-03-11T16:45:45.384Z,0.10
2019-03-11T16:48:16.084Z,0.20
2019-03-11T16:50:47.384Z,0.10
2019-03-11T16:53:18.372Z,0.10
2019-03-11T16:55:51.070Z,0.10
2019-03-11T16:58:23.368Z,0.40
2019-03-11T17:00:56.623Z,0.20
2019-03-11T17:03:27.514Z,0.00
2019-03-11T17:05:58.610Z,0.20
2019-03-11T17:08:29.374Z,0.10
2019-03-11T17:11:00.285Z,0.10
2019-03-11T17:13:31.279Z,0.20
2019-03-11T17:16:02.693Z,0.13
2019-03-11T17:18:34.764Z,0.00
2019-03-11T17:21:06.599Z,0.10
2019-03-11T17:23:37.569Z,0.03
2019-03-11T17:26:08.600Z,0.07
2019-03-11T17:28:39.571Z,0.30
2019-03-11T17:31:10.463Z,0.50
2019-03-11T17:33:42.692Z,0.50
2019-03-11T17:36:14.139Z,1.37
2019-03-11T17:38:45.085Z,1.10
2019-03-11T17:41:15.990Z,1.00
2019-03-11T17:43:46.970Z,1.37
2019-03-11T17:46:17.944Z,0.93
2019-03-11T17:48:49.324Z,1.03
2019-03-11T17:51:20.500Z,0.83
2019-03-11T17:53:51.577Z,1.20
2019-03-11T17:56:22.514Z,1.03
2019-03-11T17:58:53.234Z,0.80
2019-03-11T18:01:24.129Z,1.10
2019-03-11T18:03:54.974Z,0.80
2019-03-11T18:06:25.874Z,1.03
2019-03-11T18:08:56.649Z,0.60
2019-03-11T18:11:27.439Z,0.70
2019-03-11T18:13:58.254Z,0.90
2019-03-11T18:16:29.067Z,0.83
2019-03-11T18:19:00.025Z,0.90
2019-03-11T18:21:30.919Z,0.50
2019-03-11T18:24:01.914Z,0.73
2019-03-11T18:26:32.724Z,1.07
2019-03-11T18:29:03.714Z,0.90
2019-03-11T18:31:34.662Z,0.97
2019-03-11T18:34:05.449Z,1.10
2019-03-11T18:36:37.168Z,1.00
2019-03-11T18:39:10.927Z,1.30
2019-03-11T18:41:42.453Z,1.10
2019-03-11T18:44:13.601Z,1.80
2019-03-11T18:46:45.768Z,1.33
2019-03-11T18:49:16.755Z,1.70
2019-03-11T18:51:47.564Z,1.57
2019-03-11T18:54:18.468Z,1.90
2019-03-11T18:56:49.548Z,2.13
2019-03-11T18:59:20.391Z,1.63
2019-03-11T19:01:51.326Z,1.40
2019-03-11T19:04:22.302Z,1.10
2019-03-11T19:06:53.354Z,0.70
2019-03-11T19:09:24.183Z,0.60
2019-03-11T19:11:55.195Z,0.77
2019-03-11T19:14:26.109Z,0.80
2019-03-11T19:16:56.940Z,0.40
2019-03-11T19:19:28.095Z,0.50
2019-03-11T19:21:59.285Z,0.20
2019-03-11T19:24:30.725Z,0.50
2019-03-11T19:27:01.998Z,0.20
2019-03-11T19:29:33.014Z,0.43
2019-03-11T19:32:05.595Z,0.10
2019-03-11T19:34:36.552Z,0.13
2019-03-11T19:37:07.470Z,0.17
2019-03-11T19:39:38.514Z,0.20
2019-03-11T19:42:09.405Z,0.10
2019-03-11T19:44:40.416Z,0.10
2019-03-11T19:47:11.760Z,0.03
2019-03-11T19:49:42.953Z,0.10
2019-03-11T19:52:14.454Z,0.20
2019-03-11T19:54:45.563Z,0.23
2019-03-11T19:57:16.874Z,0.20
2019-03-11T19:59:48.176Z,0.00
2019-03-11T20:02:19.163Z,0.20
2019-03-11T20:04:50.512Z,0.10
2019-03-11T20:07:21.862Z,0.10
2019-03-11T20:09:53.024Z,0.30
2019-03-11T20:12:24.274Z,0.10
2019-03-11T20:14:56.055Z,0.30
2019-03-11T20:17:27.928Z,0.23
2019-03-11T20:19:59.220Z,0.10
2019-03-11T20:22:30.354Z,0.20
2019-03-11T20:25:02.332Z,0.13
2019-03-11T20:27:33.980Z,0.23
2019-03-11T20:30:06.235Z,0.30
2019-03-11T20:32:37.665Z,0.50
2019-03-11T20:35:12.764Z,0.77
2019-03-11T20:37:45.002Z,0.73
2019-03-11T20:40:18.051Z,1.23
2019-03-11T20:42:48.953Z,0.93
2019-03-11T20:45:20.096Z,1.07
2019-03-11T20:47:51.530Z,0.60
2019-03-11T20:50:22.686Z,0.93
2019-03-11T20:52:53.944Z,0.60
2019-03-11T20:55:26.599Z,0.60
2019-03-11T20:57:57.669Z,0.60
2019-03-11T21:00:29.708Z,0.40
2019-03-11T21:03:00.719Z,0.30
2019-03-11T21:05:34.183Z,0.60
2019-03-11T21:08:05.219Z,0.27
2019-03-11T21:10:36.316Z,0.40
2019-03-11T21:13:07.896Z,0.20
2019-03-11T21:15:39.140Z,0.30
2019-03-11T21:18:10.128Z,0.37
2019-03-11T21:20:41.148Z,0.30
2019-03-11T21:23:12.125Z,0.40
2019-03-11T21:25:43.045Z,0.47
2019-03-11T21:28:14.314Z,0.40
2019-03-11T21:30:45.520Z,0.40
2019-03-11T21:33:16.900Z,0.20
2019-03-11T21:35:47.723Z,0.10
2019-03-11T21:38:18.818Z,0.30
2019-03-11T21:40:49.949Z,0.20
2019-03-11T21:43:20.919Z,0.30
2019-03-11T21:45:52.230Z,0.40
2019-03-11T21:48:23.251Z,0.40
2019-03-11T21:50:54.232Z,1.37
2019-03-11T21:53:25.612Z,0.10
2019-03-11T21:55:56.445Z,0.20
2019-03-11T21:58:27.482Z,0.27
2019-03-11T22:00:58.464Z,0.20
2019-03-11T22:03:29.403Z,0.40
2019-03-11T22:06:00.279Z,0.40
2019-03-11T22:08:31.308Z,0.33
2019-03-11T22:11:02.338Z,0.50
2019-03-11T22:13:33.278Z,0.20
2019-03-11T22:16:04.172Z,0.23
2019-03-11T22:18:35.014Z,0.20
2019-03-11T22:21:05.728Z,0.23
2019-03-11T22:23:36.644Z,0.40
2019-03-11T22:26:07.719Z,0.20
2019-03-11T22:28:38.444Z,0.27
2019-03-11T22:31:09.265Z,0.20
2019-03-11T22:33:40.179Z,0.10
2019-03-11T22:36:11.138Z,0.20
2019-03-11T22:38:42.029Z,0.13
2019-03-11T22:41:12.944Z,0.10
2019-03-11T22:43:43.745Z,0.10
2019-03-11T22:46:14.518Z,0.30
2019-03-11T22:48:45.289Z,0.10
2019-03-11T22:51:16.188Z,0.10
2019-03-11T22:53:46.939Z,0.10
2019-03-11T22:56:17.718Z,0.10
2019-03-11T22:58:48.513Z,0.00
2019-03-11T23:01:21.018Z,0.13
2019-03-11T23:03:51.773Z,0.10
2019-03-11T23:06:22.499Z,0.10
2019-03-11T23:08:53.420Z,0.20
2019-03-11T23:11:24.198Z,0.20
2019-03-11T23:13:54.858Z,0.20
2019-03-11T23:16:25.598Z,0.30
2019-03-11T23:18:56.344Z,0.30
2019-03-11T23:21:27.198Z,0.17
2019-03-11T23:23:58.023Z,0.33
2019-03-11T23:26:28.794Z,0.37
2019-03-11T23:28:59.673Z,0.47
2019-03-11T23:31:30.433Z,0.30
2019-03-11T23:34:01.304Z,0.30
2019-03-11T23:36:32.354Z,0.20
2019-03-11T23:39:03.118Z,0.40
2019-03-11T23:41:33.894Z,0.60
2019-03-11T23:44:04.584Z,0.40
2019-03-11T23:46:35.773Z,0.40
2019-03-11T23:49:07.024Z,0.47
2019-03-11T23:51:38.143Z,0.40
2019-03-11T23:54:08.899Z,0.30
2019-03-11T23:56:39.633Z,0.30
2019-03-11T23:59:10.699Z,0.20
